F/V Attalaya Berria — FHCB — position and weather

sailwx.info

Track history (hours):
 
Tides and Currents Weather Stations Pressure Air Temp Water Temp Dewpoint Dewpoint Depression Visibility Wind Speed Wind Dir Waves Ship Positions

F/V Attalaya Berria

Last reported at 2016-Aug-29 09:08 UTC. Time now 2016-Sep-25 03:43 UTC.
Position N 43°22' W 001°47'.
Warning: this ship's position is 26 days out of date.

Length 26 m.

Type: Fishing. MMSI: 228315000.

Date/timePositionNaut miles runAvg speedWind from/ knotsBaromVisibWave heightAir tempDewpointWater temp
2016-Aug-29 09:08N 43°22' W 001°47'1 2.1
2016-Aug-29 08:33N 43°23' W 001°48'0 0.2
2016-Aug-29 07:32N 43°23' W 001°47'  
2016-Aug-26 01:07N 43°22' W 001°47'4 7.2
2016-Aug-26 00:30N 43°26' W 001°43'1 0.2
2016-Aug-25 20:30N 43°26' W 001°42'0 0.1
2016-Aug-25 19:33N 43°26' W 001°42'5 0.5
2016-Aug-25 08:33N 43°22' W 001°47'5 0.8
2016-Aug-25 02:13N 43°26' W 001°43'1 1.0
2016-Aug-25 01:33N 43°27' W 001°43'0 0.1
2016-Aug-25 00:33N 43°27' W 001°42'2 2.0
2016-Aug-24 23:32N 43°25' W 001°44'0 0.1
2016-Aug-24 22:33N 43°25' W 001°44'0 0.0
2016-Aug-24 21:22N 43°25' W 001°44'0 0.0
2016-Aug-24 20:32N 43°25' W 001°44'1 0.8
2016-Aug-24 19:31N 43°25' W 001°43'6 0.5
2016-Aug-24 06:26N 43°23' W 001°51'7 1.6
2016-Aug-24 02:07N 43°26' W 001°42'1 1.0
2016-Aug-24 01:33N 43°26' W 001°42'1 1.2
2016-Aug-24 00:33N 43°25' W 001°44'0 0.1
2016-Aug-23 23:24N 43°25' W 001°44'0 0.0
2016-Aug-23 22:31N 43°25' W 001°44'0 0.0
2016-Aug-23 21:33N 43°25' W 001°44'0 0.0
2016-Aug-23 20:26N 43°25' W 001°44'1 1.2
2016-Aug-23 19:33N 43°26' W 001°43'5 0.4
2016-Aug-23 07:20N 43°22' W 001°47'5 6.0
2016-Aug-23 06:33N 43°22' W 001°53'6 1.5
2016-Aug-23 02:19N 43°25' W 001°46'3 3.7
2016-Aug-23 01:32N 43°27' W 001°42'1 0.9
2016-Aug-23 00:33N 43°27' W 001°41'3 3.5
2016-Aug-22 23:33N 43°24' W 001°45'1 1.1
2016-Aug-22 22:33N 43°25' W 001°44'0 0.1
2016-Aug-22 21:33N 43°25' W 001°44'0 0.0
2016-Aug-22 20:33N 43°25' W 001°44'0 0.1
2016-Aug-22 19:33N 43°25' W 001°44'4 0.3
2016-Aug-22 06:07N 43°22' W 001°47'3 4.9
2016-Aug-22 05:33N 43°24' W 001°50'3 0.7
2016-Aug-22 01:33N 43°22' W 001°53'7 7.0
2016-Aug-22 00:33N 43°25' W 001°45'0 0.3
2016-Aug-21 23:31N 43°24' W 001°45'1 0.9
2016-Aug-21 22:33N 43°25' W 001°44'0 0.1
2016-Aug-21 21:33N 43°25' W 001°44'0 0.0
2016-Aug-21 20:33N 43°25' W 001°44'0 0.2
2016-Aug-21 19:33N 43°25' W 001°44'  
Track history (hours):
 
Tides and Currents Weather Stations Pressure Air Temp Water Temp Dewpoint Dewpoint Depression Visibility Wind Speed Wind Dir Waves Ship Positions

F/V Attalaya Berria

Last reported at 2016-Aug-29 09:08 UTC. Time now 2016-Sep-25 03:43 UTC.
Position N 43°22' W 001°47'.
Warning: this ship's position is 26 days out of date.

Length 26 m.

Type: Fishing. MMSI: 228315000.

Date/timePositionNaut miles runAvg speedWind from/ knotsBaromVisibWave heightAir tempDewpointWater temp
2016-Aug-29 09:08N 43°22' W 001°47'1 2.1
2016-Aug-29 08:33N 43°23' W 001°48'0 0.2
2016-Aug-29 07:32N 43°23' W 001°47'  
2016-Aug-26 01:07N 43°22' W 001°47'4 7.2
2016-Aug-26 00:30N 43°26' W 001°43'1 0.2
2016-Aug-25 20:30N 43°26' W 001°42'0 0.1
2016-Aug-25 19:33N 43°26' W 001°42'5 0.5
2016-Aug-25 08:33N 43°22' W 001°47'5 0.8
2016-Aug-25 02:13N 43°26' W 001°43'1 1.0
2016-Aug-25 01:33N 43°27' W 001°43'0 0.1
2016-Aug-25 00:33N 43°27' W 001°42'2 2.0
2016-Aug-24 23:32N 43°25' W 001°44'0 0.1
2016-Aug-24 22:33N 43°25' W 001°44'0 0.0
2016-Aug-24 21:22N 43°25' W 001°44'0 0.0
2016-Aug-24 20:32N 43°25' W 001°44'1 0.8
2016-Aug-24 19:31N 43°25' W 001°43'6 0.5
2016-Aug-24 06:26N 43°23' W 001°51'7 1.6
2016-Aug-24 02:07N 43°26' W 001°42'1 1.0
2016-Aug-24 01:33N 43°26' W 001°42'1 1.2
2016-Aug-24 00:33N 43°25' W 001°44'0 0.1
2016-Aug-23 23:24N 43°25' W 001°44'0 0.0
2016-Aug-23 22:31N 43°25' W 001°44'0 0.0
2016-Aug-23 21:33N 43°25' W 001°44'0 0.0
2016-Aug-23 20:26N 43°25' W 001°44'1 1.2
2016-Aug-23 19:33N 43°26' W 001°43'5 0.4
2016-Aug-23 07:20N 43°22' W 001°47'5 6.0
2016-Aug-23 06:33N 43°22' W 001°53'6 1.5
2016-Aug-23 02:19N 43°25' W 001°46'3 3.7
2016-Aug-23 01:32N 43°27' W 001°42'1 0.9
2016-Aug-23 00:33N 43°27' W 001°41'3 3.5
2016-Aug-22 23:33N 43°24' W 001°45'1 1.1
2016-Aug-22 22:33N 43°25' W 001°44'0 0.1
2016-Aug-22 21:33N 43°25' W 001°44'0 0.0
2016-Aug-22 20:33N 43°25' W 001°44'0 0.1
2016-Aug-22 19:33N 43°25' W 001°44'4 0.3
2016-Aug-22 06:07N 43°22' W 001°47'3 4.9
2016-Aug-22 05:33N 43°24' W 001°50'3 0.7
2016-Aug-22 01:33N 43°22' W 001°53'7 7.0
2016-Aug-22 00:33N 43°25' W 001°45'0 0.3
2016-Aug-21 23:31N 43°24' W 001°45'1 0.9
2016-Aug-21 22:33N 43°25' W 001°44'0 0.1
2016-Aug-21 21:33N 43°25' W 001°44'0 0.0
2016-Aug-21 20:33N 43°25' W 001°44'0 0.2
2016-Aug-21 19:33N 43°25' W 001°44'  

Dump ship's entire track history